Langston, AL (35755)

5:21 PM CST on February 12, 2016 (GMT -0600)
PlaygroundShores | | Change Station
CLOSE
Current Station
Personal Weather Station
Location: Guntersville, AL
Elevation: 610 ft
Nearby Weather Stations

Elev 610 ft 34.41 °N, 86.26 °W | Updated 1 minute ago

Clear
Clear
52.7 °F
Feels Like 52.7 °F
N
5.0
Wind Variable Wind from West
Gusts 10.0 mph

Today
High -- | Low -- °F
--% Chance of Precip.
Yesterday
High -- | Low -- °F
Precip. -- in
Pressure 30.14 in
Visibility 10.0 miles
Clouds Clear
Dew Point 32 °F
Humidity 45%
Rainfall 0.00 in
Snow Depth Not available.
6:33 AM 5:24 PM
Waxing Crescent, 24% visible
METAR K8A0 122315Z AUTO 30006G10KT 10SM CLR 10/01 A3014 RMK AO2
Pressure 30.14 in
Visibility 10.0 miles
Clouds Clear
Dew Point 32 °F
Humidity 45%
Rainfall 0.00 in
Snow Depth Not available.
6:33 AM 5:24 PM
Waxing Crescent, 24% visible
METAR K8A0 122315Z AUTO 30006G10KT 10SM CLR 10/01 A3014 RMK AO2

10-Day Weather Forecast

Almanac

Astronomy

Feb. 12, 2016 Rise Set
Actual Time
Civil Twilight
Nautical Twilight
Astronomical Twilight
Moon
Length of Visible Light
Length of Day
Tomorrow will be .
, % of the Moon is Illuminated

Today's Extremes

State Highs State Lows

Community

WunderPhotos

Upload Photos

1,892,436 photos uploaded!

WunderBlog® & News

Nearby

Air Quality

  Air Quality AQ Index Pollutant
Not available.

Snow Depth

Station Depth Elevation

Earthquake Activity

City Distance Mag. Time & Date
Minimum magnitude displayed is 2.5.

Coastal Water Temperatures

Place Temperature

Stations

Nearby Weather Stations

Station Location Temp. Windchill Dew Point Humidity Wind Precip. Elev Updated Type
                   

Watches & Warnings

There are currently no watches in effect.